createdAt,value
2023-02-17T00:01:29.257Z,21.00
2023-02-17T00:03:56.081Z,21.38
2023-02-17T00:06:27.050Z,22.00
2023-02-17T00:08:54.645Z,19.42
2023-02-17T00:11:21.727Z,21.60
2023-02-17T00:13:48.567Z,22.58
2023-02-17T00:16:20.755Z,21.75
2023-02-17T00:18:48.411Z,22.02
2023-02-17T00:21:17.669Z,20.17
2023-02-17T00:23:45.787Z,22.38
2023-02-17T00:26:12.621Z,22.13
2023-02-17T00:28:39.870Z,23.88
2023-02-17T00:31:18.680Z,23.52
2023-02-17T00:33:45.644Z,23.00
2023-02-17T00:36:15.352Z,18.65
2023-02-17T00:38:42.144Z,21.13
2023-02-17T00:41:08.943Z,24.35
2023-02-17T00:43:35.731Z,23.80
2023-02-17T00:46:04.352Z,24.02
2023-02-17T00:48:31.660Z,20.58
2023-02-17T00:50:58.406Z,20.83
2023-02-17T00:53:25.145Z,22.92
2023-02-17T00:55:51.868Z,20.33
2023-02-17T00:58:18.625Z,20.65
2023-02-17T01:00:45.500Z,20.92
2023-02-17T01:03:12.202Z,20.23
2023-02-17T01:05:43.423Z,22.80
2023-02-17T01:08:10.523Z,18.80
2023-02-17T01:10:42.419Z,21.27
2023-02-17T01:13:09.853Z,19.33
2023-02-17T01:15:41.736Z,18.38
2023-02-17T01:18:08.608Z,20.10
2023-02-17T01:20:37.447Z,19.13
2023-02-17T01:23:05.002Z,19.38
2023-02-17T01:25:31.826Z,19.98
2023-02-17T01:27:58.834Z,21.45
2023-02-17T01:30:25.850Z,19.20
2023-02-17T01:32:52.615Z,21.90
2023-02-17T01:35:19.936Z,19.15
2023-02-17T01:37:46.599Z,21.35
2023-02-17T01:40:14.899Z,21.13
2023-02-17T01:42:41.645Z,19.52
2023-02-17T01:45:32.315Z,22.70
2023-02-17T01:48:14.468Z,19.80
2023-02-17T01:50:46.112Z,21.70
2023-02-17T01:53:17.071Z,19.50
2023-02-17T01:55:44.705Z,19.58
2023-02-17T01:58:14.722Z,19.63
2023-02-17T02:00:42.292Z,19.77
2023-02-17T02:03:13.028Z,18.48
2023-02-17T02:05:41.356Z,20.20
2023-02-17T02:08:09.333Z,18.50
2023-02-17T02:10:36.034Z,19.30
2023-02-17T02:13:03.799Z,20.50
2023-02-17T02:16:06.068Z,16.98
2023-02-17T02:18:38.788Z,16.05
2023-02-17T02:21:37.604Z,18.10
2023-02-17T02:24:36.619Z,16.23
2023-02-17T02:27:18.328Z,18.85
2023-02-17T02:29:57.352Z,16.42
2023-02-17T02:33:02.633Z,19.08
2023-02-17T02:35:52.490Z,18.27
2023-02-17T02:38:41.169Z,18.85
2023-02-17T02:41:16.781Z,18.08
2023-02-17T02:43:43.929Z,15.43
2023-02-17T02:46:10.862Z,15.35
2023-02-17T02:48:38.475Z,16.88
2023-02-17T02:51:37.624Z,16.13
2023-02-17T02:54:07.074Z,16.35
2023-02-17T02:57:05.673Z,14.60
2023-02-17T02:59:41.194Z,17.00
2023-02-17T03:02:38.509Z,15.20
2023-02-17T03:05:25.389Z,17.58
2023-02-17T03:08:01.668Z,16.77
2023-02-17T03:10:28.640Z,16.42
2023-02-17T03:12:55.748Z,15.02
2023-02-17T03:15:34.681Z,17.58
2023-02-17T03:18:02.795Z,15.68
2023-02-17T03:20:36.356Z,13.55
2023-02-17T03:23:04.529Z,15.10
2023-02-17T03:25:31.358Z,13.80
2023-02-17T03:27:58.040Z,16.15
2023-02-17T03:30:24.897Z,14.65
2023-02-17T03:32:51.776Z,17.67
2023-02-17T03:35:18.599Z,17.67
2023-02-17T03:37:45.340Z,19.63
2023-02-17T03:40:12.088Z,15.15
2023-02-17T03:42:38.849Z,14.68
2023-02-17T03:45:06.041Z,16.58
2023-02-17T03:47:32.779Z,14.30
2023-02-17T03:49:59.589Z,15.10
2023-02-17T03:52:26.330Z,15.50
2023-02-17T03:54:53.248Z,14.77
2023-02-17T03:57:19.941Z,17.13
2023-02-17T03:59:46.624Z,13.70
2023-02-17T04:02:13.345Z,14.35
2023-02-17T04:04:40.094Z,12.35
2023-02-17T04:07:06.896Z,16.20
2023-02-17T04:09:33.627Z,13.88
2023-02-17T04:12:00.292Z,14.30
2023-02-17T04:14:26.981Z,14.40
2023-02-17T04:16:53.674Z,14.25
2023-02-17T04:19:21.279Z,14.35
2023-02-17T04:21:48.180Z,16.90
2023-02-17T04:24:14.884Z,18.85
2023-02-17T04:26:41.615Z,14.98
2023-02-17T04:29:08.336Z,13.55
2023-02-17T04:31:35.208Z,13.77
2023-02-17T04:34:01.977Z,15.00
2023-02-17T04:36:28.714Z,13.07
2023-02-17T04:38:55.397Z,15.32
2023-02-17T04:41:22.157Z,15.65
2023-02-17T04:43:49.076Z,12.13
2023-02-17T04:46:15.912Z,15.18
2023-02-17T04:48:42.693Z,13.52
2023-02-17T04:51:09.517Z,13.20
2023-02-17T04:53:36.214Z,16.98
2023-02-17T04:56:03.024Z,14.70
2023-02-17T04:58:29.729Z,15.57
2023-02-17T05:00:59.062Z,12.90
2023-02-17T05:03:25.828Z,12.13
2023-02-17T05:05:52.524Z,14.38
2023-02-17T05:08:19.259Z,15.13
2023-02-17T05:10:46.014Z,17.58
2023-02-17T05:13:12.727Z,13.35
2023-02-17T05:15:39.544Z,12.93
2023-02-17T05:18:06.374Z,15.20
2023-02-17T05:20:33.318Z,12.85
2023-02-17T05:23:00.512Z,12.18
2023-02-17T05:25:27.718Z,16.15
2023-02-17T05:27:54.515Z,11.05
2023-02-17T05:30:21.621Z,13.13
2023-02-17T05:32:48.431Z,17.40
2023-02-17T05:35:15.315Z,12.95
2023-02-17T05:37:42.061Z,10.98
2023-02-17T05:40:09.307Z,13.10
2023-02-17T05:42:36.054Z,11.00
2023-02-17T05:45:02.935Z,14.18
2023-02-17T05:47:29.729Z,15.27
2023-02-17T05:49:56.389Z,13.02
2023-02-17T05:52:23.084Z,12.23
2023-02-17T05:54:49.977Z,12.88
2023-02-17T05:57:16.865Z,12.55
2023-02-17T05:59:43.545Z,15.52
2023-02-17T06:02:10.275Z,13.85
2023-02-17T06:04:37.207Z,13.38
2023-02-17T06:07:04.004Z,10.32
2023-02-17T06:09:30.847Z,12.27
2023-02-17T06:11:57.529Z,11.98
2023-02-17T06:14:24.303Z,11.93
2023-02-17T06:16:51.114Z,13.85
2023-02-17T06:19:17.842Z,10.95
2023-02-17T06:21:44.695Z,12.32
2023-02-17T06:24:11.428Z,13.32
2023-02-17T06:26:38.214Z,14.70
2023-02-17T06:29:06.204Z,13.68
2023-02-17T06:31:33.181Z,15.07
2023-02-17T06:33:59.963Z,14.13
2023-02-17T06:36:26.638Z,14.57
2023-02-17T06:38:53.394Z,11.52
2023-02-17T06:41:20.160Z,13.15
2023-02-17T06:43:46.869Z,12.10
2023-02-17T06:46:13.606Z,14.60
2023-02-17T06:48:40.316Z,15.18
2023-02-17T06:51:07.078Z,12.10
2023-02-17T06:53:33.793Z,13.10
2023-02-17T06:56:00.496Z,11.75
2023-02-17T06:58:27.183Z,13.82
2023-02-17T07:00:53.920Z,13.75
2023-02-17T07:03:20.645Z,14.00
2023-02-17T07:05:47.462Z,11.43
2023-02-17T07:08:14.244Z,13.88
2023-02-17T07:10:40.981Z,12.57
2023-02-17T07:13:07.730Z,12.85
2023-02-17T07:15:34.792Z,12.65
2023-02-17T07:18:02.447Z,12.73
2023-02-17T07:20:29.254Z,13.48
2023-02-17T07:22:55.977Z,10.68
2023-02-17T07:25:22.662Z,11.38
2023-02-17T07:27:49.539Z,14.88
2023-02-17T07:30:16.422Z,14.00
2023-02-17T07:32:43.375Z,13.68
2023-02-17T07:35:10.416Z,11.25
2023-02-17T07:37:37.204Z,13.25
2023-02-17T07:40:04.380Z,14.05
2023-02-17T07:42:31.319Z,12.63
2023-02-17T07:44:58.073Z,10.40
2023-02-17T07:47:24.866Z,12.27
2023-02-17T07:49:51.588Z,10.40
2023-02-17T07:52:18.674Z,10.75
2023-02-17T07:54:45.565Z,9.45
2023-02-17T07:57:12.325Z,9.13
2023-02-17T07:59:39.078Z,7.80
2023-02-17T08:02:05.851Z,8.65
2023-02-17T08:04:33.081Z,9.98
2023-02-17T08:06:59.889Z,11.20
2023-02-17T08:09:45.129Z,7.82
2023-02-17T08:12:35.609Z,10.98
2023-02-17T08:15:02.774Z,9.55
2023-02-17T08:17:30.228Z,12.90
2023-02-17T08:19:56.999Z,8.40
2023-02-17T08:22:23.733Z,9.90
2023-02-17T08:24:50.822Z,14.65
2023-02-17T08:27:19.005Z,12.27
2023-02-17T08:29:45.888Z,10.80
2023-02-17T08:32:14.191Z,14.52
2023-02-17T08:34:40.996Z,11.30
2023-02-17T08:37:08.609Z,9.93
2023-02-17T08:39:36.446Z,10.98
2023-02-17T08:42:04.651Z,11.55
2023-02-17T08:44:35.770Z,12.52
2023-02-17T08:47:02.499Z,10.85
2023-02-17T08:49:32.328Z,10.27
2023-02-17T08:52:00.006Z,9.85
2023-02-17T08:54:27.198Z,6.75
2023-02-17T08:56:53.949Z,11.48
2023-02-17T08:59:21.003Z,6.85
2023-02-17T09:01:47.853Z,6.93
2023-02-17T09:04:15.625Z,7.90
2023-02-17T09:06:48.433Z,7.68
2023-02-17T09:09:18.558Z,6.95
2023-02-17T09:11:45.898Z,8.52
2023-02-17T09:14:12.737Z,7.38
2023-02-17T09:16:43.597Z,9.98
2023-02-17T09:19:10.381Z,7.50
2023-02-17T09:21:37.266Z,6.75
2023-02-17T09:24:04.409Z,8.90
2023-02-17T09:26:31.119Z,7.15
2023-02-17T09:28:58.169Z,6.43
2023-02-17T09:31:26.888Z,12.75
2023-02-17T09:33:54.532Z,6.97
2023-02-17T09:36:33.844Z,7.10
2023-02-17T09:39:01.844Z,6.00
2023-02-17T09:41:41.856Z,6.45
2023-02-17T09:44:16.878Z,8.65
2023-02-17T09:47:01.277Z,5.80
2023-02-17T09:49:37.723Z,8.57
2023-02-17T09:52:14.355Z,6.95
2023-02-17T09:55:04.205Z,10.20
2023-02-17T09:57:43.736Z,8.55
2023-02-17T10:00:19.502Z,8.25
2023-02-17T10:02:53.047Z,7.68
2023-02-17T10:05:26.092Z,13.25
2023-02-17T10:08:23.989Z,9.15
2023-02-17T10:11:05.153Z,6.75
2023-02-17T10:13:36.679Z,9.55
2023-02-17T10:16:14.670Z,9.70
2023-02-17T10:18:51.940Z,7.50
2023-02-17T10:21:34.065Z,9.85
2023-02-17T10:24:00.908Z,8.13
2023-02-17T10:27:01.713Z,7.75
2023-02-17T10:29:41.788Z,8.57
2023-02-17T10:32:25.305Z,7.13
2023-02-17T10:34:58.102Z,7.35
2023-02-17T10:37:31.077Z,7.00
2023-02-17T10:39:58.685Z,8.20
2023-02-17T10:42:39.166Z,9.38
2023-02-17T10:45:36.645Z,10.15
2023-02-17T10:48:08.725Z,7.88
2023-02-17T10:50:37.929Z,8.13
2023-02-17T10:53:20.630Z,6.70
2023-02-17T10:56:11.879Z,6.03
2023-02-17T10:58:52.569Z,4.75
2023-02-17T11:01:20.174Z,5.32
2023-02-17T11:03:46.997Z,5.78
2023-02-17T11:06:22.516Z,7.38
2023-02-17T11:08:54.282Z,6.07
2023-02-17T11:11:32.258Z,5.57
2023-02-17T11:14:08.285Z,5.80
2023-02-17T11:16:47.310Z,5.68
2023-02-17T11:19:30.455Z,7.20
2023-02-17T11:21:59.215Z,6.80
2023-02-17T11:24:27.063Z,4.63
2023-02-17T11:27:04.328Z,6.20
2023-02-17T11:29:33.172Z,7.95
2023-02-17T11:32:07.388Z,7.60
2023-02-17T11:34:36.597Z,8.43
2023-02-17T11:37:15.866Z,6.75
2023-02-17T11:39:45.505Z,9.02
2023-02-17T11:42:26.555Z,5.90
2023-02-17T11:44:56.618Z,7.43
2023-02-17T11:47:29.187Z,5.95
2023-02-17T11:50:07.699Z,6.70
2023-02-17T11:52:49.467Z,7.63
2023-02-17T11:55:34.545Z,6.85
2023-02-17T11:58:14.056Z,7.35
2023-02-17T12:01:03.950Z,9.07
2023-02-17T12:03:47.354Z,6.68
2023-02-17T12:06:22.696Z,7.70
2023-02-17T12:08:55.197Z,11.65
2023-02-17T12:11:35.435Z,5.63
2023-02-17T12:14:25.364Z,15.13
2023-02-17T12:17:01.648Z,5.93
2023-02-17T12:19:51.768Z,9.55
2023-02-17T12:22:33.030Z,5.45
2023-02-17T12:25:26.801Z,10.23
2023-02-17T12:28:13.819Z,11.82
2023-02-17T12:31:09.200Z,16.55
2023-02-17T12:33:58.636Z,11.88
2023-02-17T12:36:40.247Z,7.25
2023-02-17T12:39:24.859Z,9.30
2023-02-17T12:41:59.382Z,10.02
2023-02-17T12:47:03.793Z,8.43
2023-02-17T12:49:37.722Z,11.23
2023-02-17T12:52:32.766Z,9.73
2023-02-17T12:55:13.045Z,9.65
2023-02-17T12:57:58.409Z,8.43
2023-02-17T13:00:40.871Z,9.02
2023-02-17T13:03:08.204Z,11.00
2023-02-17T13:05:40.715Z,12.65
2023-02-17T13:08:22.013Z,9.35
2023-02-17T13:11:04.657Z,9.68
2023-02-17T13:13:33.124Z,7.72
2023-02-17T13:16:11.586Z,10.48
2023-02-17T13:18:46.554Z,5.65
2023-02-17T13:21:24.763Z,9.00
2023-02-17T13:24:26.699Z,10.90
2023-02-17T13:26:53.406Z,8.55
2023-02-17T13:29:32.103Z,11.13
2023-02-17T13:32:04.674Z,5.88
2023-02-17T13:34:37.768Z,7.20
2023-02-17T13:37:19.196Z,10.02
2023-02-17T13:39:46.560Z,7.45
2023-02-17T13:42:33.315Z,6.70
2023-02-17T13:45:00.806Z,10.43
2023-02-17T13:47:47.782Z,7.05
2023-02-17T13:50:34.283Z,9.00
2023-02-17T13:53:02.830Z,8.63
2023-02-17T13:55:29.866Z,9.75
2023-02-17T13:57:58.835Z,13.57
2023-02-17T14:00:26.988Z,9.65
2023-02-17T14:03:25.123Z,11.25
2023-02-17T14:06:02.968Z,9.48
2023-02-17T14:08:40.984Z,13.77
2023-02-17T14:11:13.684Z,13.98
2023-02-17T14:13:45.436Z,12.52
2023-02-17T14:16:30.682Z,8.75
2023-02-17T14:19:17.960Z,7.50
2023-02-17T14:21:55.298Z,8.95
2023-02-17T14:24:33.158Z,10.80
2023-02-17T14:27:08.172Z,7.55
2023-02-17T14:29:43.452Z,8.27
2023-02-17T14:32:30.409Z,9.75
2023-02-17T14:35:26.632Z,11.75
2023-02-17T14:37:53.438Z,7.07
2023-02-17T14:40:24.055Z,7.43
2023-02-17T14:42:51.449Z,6.28
2023-02-17T14:45:19.066Z,8.18
2023-02-17T14:47:46.810Z,6.93
2023-02-17T14:50:14.901Z,5.75
2023-02-17T14:52:47.312Z,5.72
2023-02-17T14:55:34.366Z,7.53
2023-02-17T14:58:01.656Z,7.10
2023-02-17T15:00:28.608Z,6.95
2023-02-17T15:02:55.523Z,6.93
2023-02-17T15:05:22.496Z,9.40
2023-02-17T15:07:49.710Z,8.38
2023-02-17T15:10:27.257Z,8.38
2023-02-17T15:12:54.688Z,8.88
2023-02-17T15:15:21.764Z,6.97
2023-02-17T15:17:48.906Z,7.22
2023-02-17T15:20:16.682Z,6.65
2023-02-17T15:22:44.419Z,8.07
2023-02-17T15:25:19.504Z,9.70
2023-02-17T15:27:46.715Z,7.32
2023-02-17T15:30:16.631Z,9.13
2023-02-17T15:32:43.926Z,11.25
2023-02-17T15:35:21.209Z,7.45
2023-02-17T15:37:48.502Z,10.07
2023-02-17T15:40:17.873Z,8.50
2023-02-17T15:42:46.170Z,8.60
2023-02-17T15:45:15.760Z,7.65
2023-02-17T15:47:42.574Z,4.80
2023-02-17T15:50:22.847Z,10.07
2023-02-17T15:52:50.838Z,8.40
2023-02-17T15:55:23.548Z,8.50
2023-02-17T15:57:54.594Z,6.30
2023-02-17T16:00:35.735Z,5.22
2023-02-17T16:03:02.948Z,4.68
2023-02-17T16:05:30.853Z,7.30
2023-02-17T16:07:57.645Z,3.85
2023-02-17T16:10:29.489Z,6.47
2023-02-17T16:12:58.327Z,7.03
2023-02-17T16:15:26.116Z,4.72
2023-02-17T16:17:52.988Z,8.75
2023-02-17T16:20:29.629Z,6.72
2023-02-17T16:22:57.107Z,9.95
2023-02-17T16:25:24.024Z,4.93
2023-02-17T16:27:52.549Z,4.57
2023-02-17T16:30:30.065Z,4.70
2023-02-17T16:32:57.185Z,5.28
2023-02-17T16:35:27.206Z,4.05
2023-02-17T16:38:07.692Z,5.22
2023-02-17T16:40:36.988Z,4.07
2023-02-17T16:43:04.048Z,5.57
2023-02-17T16:45:32.675Z,9.75
2023-02-17T16:48:01.251Z,12.15
2023-02-17T16:50:35.211Z,9.27
2023-02-17T16:53:06.036Z,7.97
2023-02-17T16:55:35.364Z,9.40
2023-02-17T16:58:03.537Z,8.57
2023-02-17T17:00:32.804Z,11.57
2023-02-17T17:02:59.965Z,8.95
2023-02-17T17:05:28.866Z,6.72
2023-02-17T17:08:23.589Z,6.43
2023-02-17T17:10:50.381Z,13.20
2023-02-17T17:13:17.958Z,10.23
2023-02-17T17:15:45.930Z,12.48
2023-02-17T17:18:21.164Z,16.95
2023-02-17T17:20:48.383Z,14.23
2023-02-17T17:23:15.828Z,11.00
2023-02-17T17:25:48.438Z,9.60
2023-02-17T17:28:17.371Z,6.97
2023-02-17T17:30:44.168Z,6.22
2023-02-17T17:33:10.914Z,5.88
2023-02-17T17:35:38.157Z,5.15
2023-02-17T17:38:05.325Z,7.22
2023-02-17T17:40:48.639Z,6.57
2023-02-17T17:43:20.388Z,6.28
2023-02-17T17:45:51.001Z,6.03
2023-02-17T17:48:18.401Z,4.55
2023-02-17T17:50:45.419Z,7.00
2023-02-17T17:53:12.199Z,6.22
2023-02-17T17:55:38.925Z,7.90
2023-02-17T17:58:05.723Z,8.75
2023-02-17T18:00:32.483Z,5.32
2023-02-17T18:02:59.182Z,6.65
2023-02-17T18:05:25.950Z,6.10
2023-02-17T18:07:53.051Z,3.88
2023-02-17T18:10:20.022Z,6.25
2023-02-17T18:12:48.028Z,7.80
2023-02-17T18:15:16.934Z,7.53
2023-02-17T18:17:46.311Z,7.60
2023-02-17T18:20:13.237Z,5.43
2023-02-17T18:22:40.284Z,4.57
2023-02-17T18:25:07.785Z,4.13
2023-02-17T18:27:52.711Z,3.83
2023-02-17T18:30:21.369Z,5.70
2023-02-17T18:32:48.706Z,4.75
2023-02-17T18:35:16.146Z,4.55
2023-02-17T18:37:43.438Z,5.72
2023-02-17T18:40:14.935Z,8.43
2023-02-17T18:42:44.502Z,4.50
2023-02-17T18:45:11.503Z,5.80
2023-02-17T18:47:38.299Z,4.32
2023-02-17T18:50:06.783Z,5.00
2023-02-17T18:52:33.722Z,6.43
2023-02-17T18:55:00.411Z,5.63
2023-02-17T18:57:27.201Z,4.55
2023-02-17T18:59:53.933Z,8.40
2023-02-17T19:02:21.978Z,7.60
2023-02-17T19:04:51.809Z,7.00
2023-02-17T19:07:18.508Z,10.57
2023-02-17T19:09:45.224Z,6.78
2023-02-17T19:12:14.689Z,6.90
2023-02-17T19:14:42.078Z,5.18
2023-02-17T19:17:10.591Z,8.65
2023-02-17T19:19:38.531Z,5.40
2023-02-17T19:22:08.184Z,9.90
2023-02-17T19:24:36.221Z,4.78
2023-02-17T19:27:03.539Z,10.00
2023-02-17T19:29:30.369Z,11.23
2023-02-17T19:31:58.328Z,8.93
2023-02-17T19:34:25.466Z,6.82
2023-02-17T19:36:52.325Z,16.55
2023-02-17T19:39:19.437Z,22.00
2023-02-17T19:41:46.115Z,11.93
2023-02-17T19:44:13.349Z,8.02
2023-02-17T19:46:40.718Z,4.65
2023-02-17T19:49:07.447Z,8.05
2023-02-17T19:51:34.829Z,6.65
2023-02-17T19:54:02.158Z,8.88
2023-02-17T19:56:31.717Z,8.43
2023-02-17T19:58:58.481Z,6.57
2023-02-17T20:01:27.690Z,7.35
2023-02-17T20:03:55.999Z,8.98
2023-02-17T20:06:28.135Z,5.45
2023-02-17T20:09:00.159Z,5.28
2023-02-17T20:11:28.389Z,8.50
2023-02-17T20:13:57.701Z,8.50
2023-02-17T20:16:24.668Z,6.88
2023-02-17T20:18:51.852Z,6.22
2023-02-17T20:21:24.024Z,6.97
2023-02-17T20:23:51.838Z,8.60
2023-02-17T20:26:22.043Z,6.28
2023-02-17T20:29:38.953Z,6.57
2023-02-17T20:32:06.818Z,10.30
2023-02-17T20:34:41.514Z,9.15
2023-02-17T20:37:09.168Z,10.02
2023-02-17T20:39:38.438Z,6.82
2023-02-17T20:42:05.617Z,6.55
2023-02-17T20:44:32.388Z,9.52
2023-02-17T20:46:59.164Z,5.68
2023-02-17T20:49:26.280Z,7.10
2023-02-17T20:51:53.604Z,10.13
2023-02-17T20:54:20.530Z,7.60
2023-02-17T20:56:47.674Z,8.00
2023-02-17T20:59:14.522Z,10.70
2023-02-17T21:01:42.079Z,8.43
2023-02-17T21:04:09.609Z,11.15
2023-02-17T21:06:41.096Z,9.15
2023-02-17T21:09:14.955Z,9.30
2023-02-17T21:11:41.799Z,9.40
2023-02-17T21:14:08.858Z,5.63
2023-02-17T21:16:35.985Z,6.13
2023-02-17T21:19:03.416Z,9.02
2023-02-17T21:21:31.283Z,6.65
2023-02-17T21:23:58.814Z,5.50
2023-02-17T21:26:25.564Z,7.90
2023-02-17T21:28:52.351Z,8.48
2023-02-17T21:31:19.546Z,7.75
2023-02-17T21:33:46.297Z,11.13
2023-02-17T21:36:15.957Z,8.07
2023-02-17T21:38:42.750Z,6.18
2023-02-17T21:41:16.241Z,6.18
2023-02-17T21:44:02.493Z,5.95
2023-02-17T21:46:30.294Z,8.68
2023-02-17T21:48:58.620Z,5.72
2023-02-17T21:51:26.127Z,6.88
2023-02-17T21:53:53.365Z,9.70
2023-02-17T21:56:22.321Z,7.05
2023-02-17T21:58:51.307Z,8.35
2023-02-17T22:01:19.357Z,7.82
2023-02-17T22:03:46.297Z,5.85
2023-02-17T22:06:17.018Z,8.48
2023-02-17T22:08:43.819Z,5.90
2023-02-17T22:11:14.977Z,5.63
2023-02-17T22:13:41.760Z,5.63
2023-02-17T22:16:08.868Z,4.10
2023-02-17T22:18:35.777Z,4.35
2023-02-17T22:21:02.704Z,4.50
2023-02-17T22:23:29.433Z,5.88
2023-02-17T22:25:56.138Z,4.80
2023-02-17T22:28:23.000Z,4.70
2023-02-17T22:30:53.207Z,5.35
2023-02-17T22:33:19.941Z,5.07
2023-02-17T22:35:46.629Z,6.85
2023-02-17T22:38:13.319Z,4.45
2023-02-17T22:40:41.352Z,4.60
2023-02-17T22:43:08.013Z,4.35
2023-02-17T22:45:34.733Z,5.85
2023-02-17T22:48:01.651Z,4.80
2023-02-17T22:50:28.376Z,4.25
2023-02-17T22:52:55.040Z,4.75
2023-02-17T22:55:21.786Z,7.05
2023-02-17T22:57:48.477Z,4.22
2023-02-17T23:00:16.015Z,3.45
2023-02-17T23:02:42.668Z,3.28
2023-02-17T23:05:09.641Z,3.33
2023-02-17T23:07:36.353Z,3.17
2023-02-17T23:10:04.383Z,3.72
2023-02-17T23:12:31.175Z,3.85
2023-02-17T23:14:58.112Z,3.60
2023-02-17T23:17:24.794Z,3.03
2023-02-17T23:19:51.445Z,3.47
2023-02-17T23:22:19.030Z,4.20
2023-02-17T23:24:47.409Z,2.55
2023-02-17T23:27:14.815Z,2.83
2023-02-17T23:29:42.529Z,3.55
2023-02-17T23:32:09.647Z,4.35
2023-02-17T23:34:36.378Z,2.85
2023-02-17T23:37:03.110Z,5.88
2023-02-17T23:39:29.801Z,2.50
2023-02-17T23:41:56.525Z,3.00
2023-02-17T23:44:23.162Z,3.30
2023-02-17T23:46:50.066Z,2.53
2023-02-17T23:49:17.584Z,2.67
2023-02-17T23:51:45.180Z,2.47
2023-02-17T23:54:12.115Z,2.85
2023-02-17T23:56:39.103Z,2.10
2023-02-17T23:59:06.049Z,2.10
